createdAt,value
2018-05-01T00:01:25.684Z,8.3
2018-05-01T00:11:26.822Z,7.4
2018-05-01T00:31:27.336Z,7.2
2018-05-01T00:41:26.062Z,7.4
2018-05-01T00:51:26.811Z,7.8
2018-05-01T01:01:25.665Z,7.1
2018-05-01T01:11:26.436Z,6.9
2018-05-01T01:21:25.625Z,6.7
2018-05-01T01:31:28.033Z,7.9
2018-05-01T01:41:27.720Z,8.0
2018-05-01T01:51:26.376Z,8.5
2018-05-01T02:01:27.572Z,7.2
2018-05-01T02:11:27.708Z,7.6
2018-05-01T02:21:25.680Z,7.5
2018-05-01T02:31:26.355Z,6.6
2018-05-01T02:41:25.300Z,6.9
2018-05-01T02:51:26.509Z,6.6
2018-05-01T03:01:25.232Z,6.8
2018-05-01T03:11:25.884Z,7.0
2018-05-01T03:21:25.450Z,6.8
2018-05-01T03:31:25.445Z,7.2
2018-05-01T03:41:27.429Z,6.8
2018-05-01T03:51:25.643Z,6.9
2018-05-01T04:01:26.418Z,6.7
2018-05-01T04:11:25.278Z,7.4
2018-05-01T04:21:26.257Z,6.9
2018-05-01T04:31:25.621Z,7.0
2018-05-01T04:41:26.371Z,6.5
2018-05-01T04:51:26.488Z,8.2
2018-05-01T05:01:27.029Z,8.1
2018-05-01T05:11:27.690Z,9.0
2018-05-01T05:21:27.364Z,8.6
2018-05-01T05:31:27.104Z,11.0
2018-05-01T05:41:25.865Z,11.8
2018-05-01T05:51:27.553Z,16.6
2018-05-01T06:01:27.315Z,14.4
2018-05-01T06:11:26.026Z,16.6
2018-05-01T06:21:28.322Z,17.1
2018-05-01T06:31:25.334Z,17.3
2018-05-01T06:41:26.169Z,14.3
2018-05-01T06:51:26.432Z,14.4
2018-05-01T07:01:27.133Z,12.1
2018-05-01T07:11:27.246Z,10.4
2018-05-01T07:21:28.133Z,8.2
2018-05-01T07:31:25.665Z,8.2
2018-05-01T07:41:26.937Z,9.0
2018-05-01T07:51:24.953Z,8.1
2018-05-01T08:01:26.009Z,8.3
2018-05-01T08:11:28.016Z,5.5
2018-05-01T08:21:24.973Z,4.9
2018-05-01T08:31:25.765Z,4.6
2018-05-01T08:41:26.016Z,4.6
2018-05-01T08:51:25.734Z,5.4
2018-05-01T09:01:25.830Z,5.2
2018-05-01T09:11:26.510Z,4.8
2018-05-01T09:21:26.710Z,4.9
2018-05-01T09:31:27.013Z,4.8
2018-05-01T09:41:26.374Z,4.2
2018-05-01T09:51:25.245Z,3.7
2018-05-01T10:01:24.925Z,3.3
2018-05-01T10:11:26.724Z,3.1
2018-05-01T10:21:25.822Z,2.7
2018-05-01T10:31:25.944Z,2.7
2018-05-01T10:41:25.833Z,2.6
2018-05-01T10:51:24.915Z,2.3
2018-05-01T11:01:26.139Z,2.2
2018-05-01T11:11:27.225Z,2.0
2018-05-01T11:21:28.975Z,1.9
2018-05-01T11:31:26.102Z,2.0
2018-05-01T11:41:24.971Z,2.0
2018-05-01T11:51:27.325Z,1.9
2018-05-01T12:01:25.563Z,1.7
2018-05-01T12:11:25.382Z,1.8
2018-05-01T12:21:25.448Z,1.9
2018-05-01T12:31:27.057Z,2.0
2018-05-01T12:41:26.456Z,1.7
2018-05-01T12:51:25.480Z,1.7
2018-05-01T13:01:26.097Z,1.6
2018-05-01T13:11:26.386Z,1.8
2018-05-01T13:21:25.466Z,2.0
2018-05-01T13:31:26.951Z,1.6
2018-05-01T13:41:25.747Z,1.5
2018-05-01T13:51:26.554Z,1.7
2018-05-01T14:01:25.912Z,1.6
2018-05-01T14:11:26.271Z,1.8
2018-05-01T14:21:25.648Z,1.5
2018-05-01T14:31:26.084Z,1.9
2018-05-01T14:41:26.481Z,2.2
2018-05-01T14:51:25.586Z,1.7
2018-05-01T15:01:25.903Z,1.5
2018-05-01T15:11:26.003Z,1.5
2018-05-01T15:21:25.138Z,1.3
2018-05-01T15:31:26.198Z,1.3
2018-05-01T15:41:24.919Z,1.6
2018-05-01T15:51:25.962Z,4.9
2018-05-01T16:01:25.888Z,14.2
2018-05-01T16:11:26.810Z,1.4
2018-05-01T16:21:26.069Z,2.2
2018-05-01T16:31:27.370Z,1.4
2018-05-01T16:41:25.803Z,1.9
2018-05-01T16:51:25.576Z,5.5
2018-05-01T17:01:25.430Z,2.2
2018-05-01T17:11:25.349Z,2.0
2018-05-01T17:21:27.143Z,2.4
2018-05-01T17:31:25.658Z,2.5
2018-05-01T17:41:25.528Z,3.0
2018-05-01T17:51:25.678Z,3.1
2018-05-01T18:01:25.355Z,2.9
2018-05-01T18:11:25.389Z,3.4
2018-05-01T18:21:25.491Z,3.3
2018-05-01T18:31:26.077Z,3.5
2018-05-01T18:41:27.897Z,3.5
2018-05-01T18:51:25.187Z,3.7
2018-05-01T19:01:25.971Z,3.6
2018-05-01T19:11:25.235Z,3.7
2018-05-01T19:21:25.723Z,3.6
2018-05-01T19:31:24.982Z,4.0
2018-05-01T19:41:26.170Z,3.9
2018-05-01T19:51:25.002Z,4.8
2018-05-01T20:01:27.334Z,4.1
2018-05-01T20:11:25.606Z,4.9
2018-05-01T20:21:27.310Z,4.6
2018-05-01T20:31:25.633Z,5.7
2018-05-01T20:41:25.579Z,5.4
2018-05-01T20:51:25.228Z,5.8
2018-05-01T21:01:24.973Z,6.2
2018-05-01T21:11:26.377Z,5.4
2018-05-01T21:21:26.992Z,6.1
2018-05-01T21:31:25.969Z,5.9
2018-05-01T21:41:25.807Z,6.0
2018-05-01T21:51:25.611Z,5.7
2018-05-01T22:01:25.841Z,5.9
2018-05-01T22:11:28.254Z,5.9
2018-05-01T22:21:26.697Z,6.1
2018-05-01T22:31:26.480Z,6.5
2018-05-01T22:41:28.027Z,5.7
2018-05-01T22:51:27.208Z,6.4
2018-05-01T23:01:27.007Z,7.0
2018-05-01T23:11:27.772Z,7.7
2018-05-01T23:21:26.703Z,6.8
2018-05-01T23:31:28.396Z,7.0
2018-05-01T23:41:27.135Z,7.1
2018-05-01T23:51:26.629Z,6.9
